createdAt,value
2019-02-12T00:01:48.361Z,4.20
2019-02-12T00:04:29.789Z,3.10
2019-02-12T00:07:11.146Z,3.10
2019-02-12T00:09:52.611Z,3.25
2019-02-12T00:12:34.013Z,3.50
2019-02-12T00:15:15.589Z,4.05
2019-02-12T00:17:57.073Z,4.50
2019-02-12T00:20:37.831Z,2.87
2019-02-12T00:23:19.488Z,2.90
2019-02-12T00:26:00.259Z,3.60
2019-02-12T00:28:40.174Z,3.85
2019-02-12T00:31:29.320Z,2.00
2019-02-12T00:34:18.283Z,3.30
2019-02-12T00:37:06.983Z,3.10
2019-02-12T00:39:55.542Z,3.40
2019-02-12T00:42:44.556Z,4.67
2019-02-12T00:54:32.907Z,3.52
2019-02-12T00:57:13.657Z,3.17
2019-02-12T00:59:54.863Z,3.37
2019-02-12T01:02:36.355Z,3.02
2019-02-12T01:05:16.025Z,4.20
2019-02-12T01:11:13.766Z,2.95
2019-02-12T01:14:02.324Z,4.35
2019-02-12T01:16:50.969Z,3.77
2019-02-12T01:19:39.792Z,4.00
2019-02-12T01:22:20.873Z,4.20
2019-02-12T01:25:02.220Z,6.62
2019-02-12T01:27:43.292Z,4.78
2019-02-12T01:30:24.017Z,2.95
2019-02-12T01:33:05.664Z,2.95
2019-02-12T01:35:47.049Z,3.98
2019-02-12T01:38:28.465Z,4.45
2019-02-12T01:41:10.075Z,3.65
2019-02-12T01:43:51.756Z,4.60
2019-02-12T01:46:32.815Z,3.45
2019-02-12T01:49:13.849Z,3.45
2019-02-12T01:51:55.397Z,3.33
2019-02-12T01:54:36.517Z,3.60
2019-02-12T01:57:17.505Z,3.95
2019-02-12T01:59:59.043Z,3.40
2019-02-12T02:02:40.004Z,2.90
2019-02-12T02:05:20.734Z,3.35
2019-02-12T02:08:01.564Z,3.47
2019-02-12T02:10:43.136Z,3.50
2019-02-12T02:13:24.636Z,3.67
2019-02-12T02:16:05.462Z,3.90
2019-02-12T02:18:46.196Z,3.20
2019-02-12T02:21:27.690Z,2.85
2019-02-12T02:24:09.284Z,3.85
2019-02-12T02:26:50.833Z,3.02
2019-02-12T02:29:31.954Z,2.60
2019-02-12T02:32:13.435Z,3.27
2019-02-12T02:34:55.059Z,3.00
2019-02-12T02:37:36.272Z,3.45
2019-02-12T02:40:17.959Z,2.65
2019-02-12T02:42:59.064Z,4.22
2019-02-12T02:45:39.970Z,3.12
2019-02-12T02:48:21.485Z,3.40
2019-02-12T02:51:02.884Z,3.10
2019-02-12T02:53:43.112Z,3.83
2019-02-12T02:56:32.057Z,4.20
2019-02-12T03:05:23.506Z,3.22
2019-02-12T03:08:16.186Z,3.75
2019-02-12T03:14:00.483Z,3.80
2019-02-12T03:20:00.379Z,3.60
2019-02-12T03:22:41.224Z,3.58
2019-02-12T03:25:22.906Z,3.20
2019-02-12T03:28:02.821Z,3.35
2019-02-12T03:31:05.498Z,3.12
2019-02-12T03:33:41.858Z,2.27
2019-02-12T03:36:44.746Z,3.40
2019-02-12T03:39:20.942Z,2.47
2019-02-12T03:42:09.550Z,2.40
2019-02-12T03:44:58.543Z,3.10
2019-02-12T03:47:47.157Z,2.72
2019-02-12T03:53:43.701Z,5.33
2019-02-12T03:56:32.568Z,2.55
2019-02-12T04:02:16.818Z,3.30
2019-02-12T04:05:05.907Z,3.92
2019-02-12T04:10:49.828Z,3.12
2019-02-12T04:13:38.712Z,4.20
2019-02-12T04:16:27.323Z,3.50
2019-02-12T04:19:29.938Z,3.62
2019-02-12T04:21:59.111Z,4.08
2019-02-12T04:24:40.742Z,4.08
2019-02-12T04:27:22.443Z,3.85
2019-02-12T04:30:04.292Z,2.92
2019-02-12T04:32:45.703Z,3.72
2019-02-12T04:35:27.094Z,4.35
2019-02-12T04:38:08.568Z,3.25
2019-02-12T04:40:50.075Z,3.62
2019-02-12T04:43:31.775Z,3.62
2019-02-12T04:46:13.019Z,4.70
2019-02-12T04:48:53.981Z,3.80
2019-02-12T04:51:35.217Z,4.08
2019-02-12T04:54:15.934Z,2.55
2019-02-12T04:56:56.705Z,3.12
2019-02-12T04:59:38.077Z,3.47
2019-02-12T05:02:19.791Z,3.52
2019-02-12T05:05:01.224Z,2.58
2019-02-12T05:07:42.404Z,2.70
2019-02-12T05:10:23.774Z,2.35
2019-02-12T05:13:05.421Z,3.05
2019-02-12T05:15:46.833Z,3.47
2019-02-12T05:18:28.356Z,4.20
2019-02-12T05:21:08.067Z,3.00
2019-02-12T05:27:05.923Z,2.87
2019-02-12T05:29:54.513Z,2.80
2019-02-12T05:32:43.102Z,3.00
2019-02-12T05:35:31.680Z,3.83
2019-02-12T05:38:20.408Z,2.98
2019-02-12T05:41:23.122Z,3.80
2019-02-12T05:43:59.297Z,3.37
2019-02-12T05:49:56.658Z,3.50
2019-02-12T05:52:37.997Z,4.15
2019-02-12T05:55:19.101Z,3.22
2019-02-12T05:57:59.095Z,3.47
2019-02-12T06:03:54.677Z,3.95
2019-02-12T06:06:33.780Z,3.55
2019-02-12T06:09:34.035Z,2.90
2019-02-12T06:12:12.762Z,3.62
2019-02-12T06:15:03.723Z,4.65
2019-02-12T06:17:52.357Z,3.15
2019-02-12T06:20:41.216Z,4.28
2019-02-12T06:26:39.339Z,4.45
2019-02-12T06:29:15.752Z,4.60
2019-02-12T06:32:04.510Z,3.45
2019-02-12T06:40:51.002Z,4.10
2019-02-12T06:43:39.751Z,3.30
2019-02-12T06:46:41.013Z,4.55
2019-02-12T06:49:19.661Z,4.10
2019-02-12T06:55:04.484Z,3.95
2019-02-12T06:57:53.095Z,4.80
2019-02-12T07:00:33.924Z,4.12
2019-02-12T07:03:15.052Z,3.85
2019-02-12T07:05:56.070Z,4.25
2019-02-12T07:08:37.687Z,5.25
2019-02-12T07:11:19.335Z,4.53
2019-02-12T07:14:00.337Z,5.15
2019-02-12T07:16:41.588Z,4.45
2019-02-12T07:19:23.222Z,5.87
2019-02-12T07:22:04.609Z,6.08
2019-02-12T07:24:46.173Z,4.60
2019-02-12T07:27:27.344Z,4.80
2019-02-12T07:30:08.098Z,4.95
2019-02-12T07:32:49.658Z,5.12
2019-02-12T07:35:31.302Z,5.00
2019-02-12T07:38:12.457Z,6.25
2019-02-12T07:40:54.041Z,5.40
2019-02-12T07:43:35.485Z,5.42
2019-02-12T07:46:16.394Z,5.72
2019-02-12T07:48:57.865Z,6.15
2019-02-12T07:51:39.789Z,6.33
2019-02-12T07:54:20.639Z,6.40
2019-02-12T07:57:01.800Z,6.20
2019-02-12T07:59:43.560Z,7.33
2019-02-12T08:02:24.894Z,6.85
2019-02-12T08:05:06.086Z,5.72
2019-02-12T08:07:47.288Z,6.40
2019-02-12T08:10:28.385Z,7.70
2019-02-12T08:13:09.660Z,7.17
2019-02-12T08:15:50.627Z,8.00
2019-02-12T08:18:32.711Z,6.85
2019-02-12T08:21:14.012Z,7.12
2019-02-12T08:23:55.555Z,7.33
2019-02-12T08:26:37.021Z,8.40
2019-02-12T08:29:18.156Z,8.20
2019-02-12T08:31:59.427Z,7.40
2019-02-12T08:34:40.606Z,7.58
2019-02-12T08:37:22.176Z,9.00
2019-02-12T08:40:03.805Z,9.90
2019-02-12T08:42:44.948Z,7.33
2019-02-12T08:45:26.663Z,8.38
2019-02-12T08:48:07.819Z,8.40
2019-02-12T08:50:49.237Z,8.75
2019-02-12T08:53:30.933Z,7.80
2019-02-12T08:56:12.611Z,9.18
2019-02-12T08:58:54.144Z,8.98
2019-02-12T09:01:35.360Z,8.30
2019-02-12T09:04:16.872Z,8.08
2019-02-12T09:06:57.845Z,9.35
2019-02-12T09:09:39.506Z,6.92
2019-02-12T09:12:20.677Z,10.25
2019-02-12T09:15:02.069Z,7.60
2019-02-12T09:17:42.887Z,9.40
2019-02-12T09:20:23.608Z,10.48
2019-02-12T09:23:04.337Z,7.78
2019-02-12T09:29:31.523Z,8.38
2019-02-12T09:32:39.332Z,7.45
2019-02-12T09:35:46.964Z,8.40
2019-02-12T09:42:02.136Z,7.65
2019-02-12T09:45:09.813Z,8.68
2019-02-12T09:48:17.763Z,7.78
2019-02-12T09:51:14.252Z,7.62
2019-02-12T09:54:21.875Z,8.25
2019-02-12T09:57:29.496Z,7.53
2019-02-12T10:00:10.837Z,6.53
2019-02-12T10:02:51.709Z,8.50
2019-02-12T10:05:32.475Z,7.10
2019-02-12T10:08:13.966Z,7.25
2019-02-12T10:10:55.127Z,7.80
2019-02-12T10:13:36.713Z,7.70
2019-02-12T10:16:18.282Z,7.80
2019-02-12T10:18:59.845Z,7.10
2019-02-12T10:21:41.119Z,7.40
2019-02-12T10:24:22.292Z,7.05
2019-02-12T10:27:03.805Z,6.33
2019-02-12T10:29:45.401Z,6.85
2019-02-12T10:32:27.001Z,5.67
2019-02-12T10:35:08.724Z,5.95
2019-02-12T10:37:50.207Z,5.72
2019-02-12T10:40:32.036Z,5.92
2019-02-12T10:43:13.389Z,6.25
2019-02-12T10:45:54.089Z,4.78
2019-02-12T10:48:35.653Z,5.55
2019-02-12T10:51:17.098Z,6.47
2019-02-12T10:53:58.541Z,6.30
2019-02-12T10:56:38.578Z,7.28
2019-02-12T11:02:29.325Z,4.50
2019-02-12T11:05:10.703Z,5.55
2019-02-12T11:07:52.316Z,6.05
2019-02-12T11:10:34.118Z,6.28
2019-02-12T11:13:15.605Z,5.22
2019-02-12T11:15:57.140Z,5.47
2019-02-12T11:18:38.607Z,4.95
2019-02-12T11:21:20.308Z,5.20
2019-02-12T11:24:01.544Z,4.80
2019-02-12T11:26:43.272Z,6.47
2019-02-12T11:29:24.883Z,6.08
2019-02-12T11:32:05.653Z,6.42
2019-02-12T11:34:45.645Z,5.83
2019-02-12T11:37:34.234Z,5.28
2019-02-12T11:40:23.139Z,6.60
2019-02-12T11:43:11.688Z,6.80
2019-02-12T11:46:00.397Z,5.60
2019-02-12T11:52:10.902Z,7.05
2019-02-12T11:54:47.521Z,6.87
2019-02-12T11:57:28.729Z,5.55
2019-02-12T12:00:10.196Z,6.45
2019-02-12T12:02:51.191Z,6.22
2019-02-12T12:05:32.350Z,6.45
2019-02-12T12:08:13.856Z,5.78
2019-02-12T12:10:55.261Z,6.75
2019-02-12T12:13:36.762Z,6.35
2019-02-12T12:16:18.072Z,6.60
2019-02-12T12:18:59.320Z,5.53
2019-02-12T12:21:39.211Z,5.97
2019-02-12T12:30:19.105Z,5.47
2019-02-12T12:33:09.328Z,6.42
2019-02-12T12:36:09.719Z,5.92
2019-02-12T12:47:38.065Z,6.65
2019-02-12T12:53:47.361Z,5.28
2019-02-12T12:56:26.106Z,5.35
2019-02-12T12:59:07.635Z,5.72
2019-02-12T13:01:48.840Z,4.97
2019-02-12T13:04:30.281Z,6.22
2019-02-12T13:07:11.837Z,5.45
2019-02-12T13:09:53.487Z,6.67
2019-02-12T13:12:34.740Z,6.03
2019-02-12T13:15:16.361Z,5.00
2019-02-12T13:17:57.698Z,4.80
2019-02-12T13:20:39.377Z,5.95
2019-02-12T13:23:20.167Z,5.55
2019-02-12T13:26:01.682Z,6.22
2019-02-12T13:28:43.040Z,7.83
2019-02-12T13:31:24.530Z,6.20
2019-02-12T13:34:05.607Z,6.75
2019-02-12T13:36:47.355Z,6.15
2019-02-12T13:39:28.743Z,6.67
2019-02-12T13:42:10.024Z,8.23
2019-02-12T13:44:51.516Z,7.37
2019-02-12T13:47:32.801Z,8.08
2019-02-12T13:50:14.357Z,7.30
2019-02-12T13:52:55.996Z,8.25
2019-02-12T13:55:37.520Z,8.85
2019-02-12T13:58:18.854Z,8.75
2019-02-12T14:00:59.738Z,9.78
2019-02-12T14:03:41.040Z,11.08
2019-02-12T14:06:22.521Z,9.95
2019-02-12T14:09:05.076Z,12.50
2019-02-12T14:11:46.728Z,12.05
2019-02-12T14:14:27.990Z,12.50
2019-02-12T14:17:09.627Z,11.15
2019-02-12T14:19:50.960Z,12.73
2019-02-12T14:22:32.085Z,13.10
2019-02-12T14:25:13.524Z,13.08
2019-02-12T14:27:54.927Z,13.30
2019-02-12T14:30:36.509Z,12.15
2019-02-12T14:33:17.660Z,12.10
2019-02-12T14:35:58.962Z,13.83
2019-02-12T14:38:40.499Z,12.45
2019-02-12T14:41:20.144Z,11.85
2019-02-12T14:44:20.566Z,15.32
2019-02-12T14:50:08.989Z,13.15
2019-02-12T14:52:57.698Z,13.35
2019-02-12T14:55:46.608Z,13.43
2019-02-12T14:58:35.191Z,13.45
2019-02-12T15:01:16.675Z,14.25
2019-02-12T15:03:58.027Z,14.07
2019-02-12T15:06:39.703Z,12.90
2019-02-12T15:09:20.405Z,14.87
2019-02-12T15:12:01.659Z,14.78
2019-02-12T15:14:43.176Z,16.40
2019-02-12T15:17:23.139Z,15.35
2019-02-12T15:23:20.881Z,15.68
2019-02-12T15:26:09.472Z,14.10
2019-02-12T15:34:49.779Z,12.88
2019-02-12T15:37:52.558Z,13.32
2019-02-12T15:40:28.712Z,12.25
2019-02-12T15:43:17.328Z,12.25
2019-02-12T15:46:05.936Z,10.63
2019-02-12T15:49:08.726Z,9.30
2019-02-12T15:51:45.251Z,9.43
2019-02-12T15:54:34.270Z,8.98
2019-02-12T15:57:24.767Z,8.90
2019-02-12T16:03:21.766Z,9.53
2019-02-12T16:06:03.212Z,9.43
2019-02-12T16:08:44.708Z,8.90
2019-02-12T16:11:26.173Z,9.10
2019-02-12T16:14:07.483Z,11.18
2019-02-12T16:16:50.080Z,9.83
2019-02-12T16:19:32.076Z,9.38
2019-02-12T16:22:13.607Z,11.05
2019-02-12T16:24:55.033Z,9.50
2019-02-12T16:27:36.676Z,10.20
2019-02-12T16:30:17.407Z,9.63
2019-02-12T16:32:59.071Z,10.85
2019-02-12T16:35:40.773Z,10.05
2019-02-12T16:38:21.928Z,10.08
2019-02-12T16:41:03.430Z,10.25
2019-02-12T16:43:44.835Z,11.80
2019-02-12T16:46:26.438Z,10.98
2019-02-12T16:49:06.523Z,10.38
2019-02-12T16:52:06.893Z,10.38
2019-02-12T17:00:46.021Z,12.05
2019-02-12T17:03:27.640Z,10.93
2019-02-12T17:06:09.022Z,11.88
2019-02-12T17:08:50.643Z,10.20
2019-02-12T17:11:32.420Z,10.08
2019-02-12T17:14:13.666Z,9.53
2019-02-12T17:16:54.330Z,10.28
2019-02-12T17:19:35.153Z,9.48
2019-02-12T17:22:16.593Z,9.43
2019-02-12T17:24:58.041Z,9.03
2019-02-12T17:27:39.446Z,9.93
2019-02-12T17:30:20.247Z,9.28
2019-02-12T17:33:01.811Z,9.80
2019-02-12T17:35:43.153Z,10.95
2019-02-12T17:38:24.638Z,9.85
2019-02-12T17:41:06.173Z,9.55
2019-02-12T17:43:47.756Z,10.55
2019-02-12T17:46:29.341Z,10.63
2019-02-12T17:49:11.065Z,9.43
2019-02-12T17:51:52.295Z,10.08
2019-02-12T17:54:34.531Z,10.48
2019-02-12T17:57:15.489Z,9.93
2019-02-12T17:59:57.230Z,10.00
2019-02-12T18:02:37.986Z,9.38
2019-02-12T18:05:17.762Z,9.83
2019-02-12T18:08:06.417Z,9.05
2019-02-12T18:10:55.389Z,8.45
2019-02-12T18:16:39.602Z,8.90
2019-02-12T18:19:39.770Z,8.30
2019-02-12T18:22:18.465Z,7.92
2019-02-12T18:25:07.528Z,7.37
2019-02-12T18:27:56.187Z,7.55
2019-02-12T18:33:40.285Z,8.08
2019-02-12T18:36:28.929Z,7.22
2019-02-12T18:42:26.976Z,7.42
2019-02-12T18:45:03.514Z,9.08
2019-02-12T18:47:52.139Z,7.75
2019-02-12T18:53:36.510Z,7.75
2019-02-12T18:59:24.372Z,9.18
2019-02-12T19:02:12.992Z,8.28
2019-02-12T19:04:54.502Z,8.75
2019-02-12T19:07:35.921Z,8.03
2019-02-12T19:10:17.601Z,8.65
2019-02-12T19:12:59.035Z,8.05
2019-02-12T19:15:40.659Z,9.95
2019-02-12T19:18:21.980Z,9.60
2019-02-12T19:21:03.735Z,9.38
2019-02-12T19:23:44.895Z,9.55
2019-02-12T19:26:26.312Z,9.75
2019-02-12T19:29:07.524Z,9.20
2019-02-12T19:31:49.030Z,10.72
2019-02-12T19:34:30.660Z,9.73
2019-02-12T19:37:10.629Z,9.80
2019-02-12T19:46:15.748Z,10.25
2019-02-12T19:52:03.989Z,10.40
2019-02-12T20:03:55.891Z,10.85
2019-02-12T20:06:56.245Z,11.63
2019-02-12T20:09:35.027Z,15.15
2019-02-12T20:21:10.057Z,13.93
2019-02-12T20:23:58.957Z,13.83
2019-02-12T20:29:43.712Z,13.58
2019-02-12T20:32:32.672Z,14.18
2019-02-12T20:35:21.260Z,13.45
2019-02-12T20:38:02.529Z,14.53
2019-02-12T20:40:43.417Z,15.45
2019-02-12T20:43:25.024Z,16.65
2019-02-12T20:46:06.245Z,15.72
2019-02-12T20:48:47.552Z,16.12
2019-02-12T20:51:29.132Z,15.00
2019-02-12T20:54:10.394Z,15.93
2019-02-12T20:56:51.941Z,15.78
2019-02-12T20:59:33.475Z,15.65
2019-02-12T21:02:14.839Z,16.62
2019-02-12T21:04:56.358Z,15.23
2019-02-12T21:07:37.940Z,17.02
2019-02-12T21:10:19.151Z,16.67
2019-02-12T21:12:59.928Z,15.90
2019-02-12T21:15:41.181Z,17.73
2019-02-12T21:18:22.858Z,15.70
2019-02-12T21:21:02.598Z,16.27
2019-02-12T21:23:51.294Z,16.17
2019-02-12T21:30:00.983Z,16.00
2019-02-12T21:35:48.709Z,15.50
2019-02-12T21:38:30.392Z,16.10
2019-02-12T21:41:11.883Z,15.05
2019-02-12T21:43:53.212Z,14.53
2019-02-12T21:46:34.016Z,14.90
2019-02-12T21:49:15.606Z,13.95
2019-02-12T21:51:57.036Z,15.48
2019-02-12T21:54:38.925Z,16.40
2019-02-12T21:57:20.670Z,13.28
2019-02-12T22:00:02.226Z,12.78
2019-02-12T22:02:41.905Z,13.18
2019-02-12T22:05:30.524Z,14.70
2019-02-12T22:08:19.164Z,16.17
2019-02-12T22:11:08.077Z,14.85
2019-02-12T22:14:10.773Z,14.23
2019-02-12T22:28:40.540Z,12.90
2019-02-12T22:37:24.140Z,13.43
2019-02-12T22:39:53.683Z,14.75
2019-02-12T22:42:35.153Z,13.22
2019-02-12T22:45:15.858Z,13.90
2019-02-12T22:47:56.720Z,13.05
2019-02-12T22:50:38.563Z,14.33
2019-02-12T22:53:20.330Z,14.63
2019-02-12T22:56:01.469Z,13.58
2019-02-12T22:58:43.094Z,16.15
2019-02-12T23:01:42.603Z,15.83
2019-02-12T23:04:23.942Z,14.35
2019-02-12T23:07:05.263Z,14.07
2019-02-12T23:09:53.989Z,16.57
2019-02-12T23:12:43.156Z,16.60
2019-02-12T23:15:32.019Z,15.75
2019-02-12T23:21:15.868Z,17.23
2019-02-12T23:27:13.696Z,15.88
2019-02-12T23:36:07.567Z,17.27
2019-02-12T23:38:49.511Z,17.30
2019-02-12T23:41:30.911Z,17.27
2019-02-12T23:44:12.477Z,18.05
2019-02-12T23:46:54.155Z,16.70
2019-02-12T23:49:35.224Z,18.52
2019-02-12T23:52:15.237Z,16.17
2019-02-12T23:55:04.514Z,16.77
